Tropical Cyclones
[Index]
Main Index Home Page Stock Weather Photos Extreme Storms Discussion Storm News and Storm Chasing Reports Tropical Cyclones / Hurricanes / Typhoons Weather Data and Links Wild Fires / Bushfires Weather Observation Techniques Weather Picture Catalogue Tornado Pictures and Reports Stock Video Footage and DVDs for sale
Season 1978-1979 Tropical Cyclone STAN Track Map
Season 1978-1979 Summaries: [BoM-AU] [JTWC-AU] [JTWC-SIO] [JTWC-SPAC] [JTWC-SH]
<<- Previous TC | BoM 1978-1979 Season | Next TC ->>

click for intensity scale information  Lat/long Grid: Show Hide

 Date Labels: Show Hide

Bureau of Meteorology Tropical Cyclone Data

Name: STAN
Number: 591 / 197879_08

06 Apr 1979 05:00 UTC to 15 Apr 1979 17:00 UTC

    date/time    lat    long    hPa   cat  kts
1979-04-06 05   11.1   150.1   1002                     
1979-04-06 11   11.1   149.5   1004                     
1979-04-06 17   11.0   148.9   1002                     
1979-04-06 23   10.9   148.1   1005                     
1979-04-07 05   10.8   147.1   1002                     
1979-04-07 11   10.8   146.0   1004                     
1979-04-07 17   10.8   144.8   1002                     
1979-04-07 23   10.8   143.6   1004                     
1979-04-08 05   10.8   142.7   1003                     
1979-04-08 08   10.8   142.3   1001                     
1979-04-08 11   10.8   142.3   1003                     
1979-04-08 17   10.8   142.3   1003                     
1979-04-08 20   10.8   142.0   1003                     
1979-04-08 23   10.8   141.7   1005                     
1979-04-09 05   10.8   141.0   1003                     
1979-04-09 11   10.7   140.3   1004                     
1979-04-09 17   10.7   139.6   1003                     
1979-04-09 23   10.7   138.9   1004                     
1979-04-10 05   10.6   138.3    999                     
1979-04-10 11   10.5   137.8   1001                     
1979-04-10 17   10.5   137.4   1000                     
1979-04-10 23   10.5   137.0    999                     
1979-04-11 05   10.5   136.7    996                     
1979-04-11 11   10.5   136.7   1000                     
1979-04-11 17   10.5   136.7    999                     
1979-04-11 23   10.5   136.7   1000                     
1979-04-12 05   10.6   136.8    999                     
1979-04-12 11   10.6   137.0   1000                     
1979-04-12 17   10.7   137.2   1000                     
1979-04-12 23   10.8   137.6   1000                     
1979-04-13 05   10.9   138.3    996                     
1979-04-13 11   11.1   139.1   1000                     
1979-04-13 17   11.5   139.7    995    1                
1979-04-13 23   11.9   140.3    997                     
1979-04-14 05   12.2   141.2    996                     
1979-04-14 08   12.3   141.8   1000                     
1979-04-14 11   12.4   143.2   1002                     
1979-04-14 17   12.4   145.5   1000                     
1979-04-14 23   12.6   147.5   1002                     
1979-04-15 05   12.8   149.5   1000                     
1979-04-15 11   13.0   151.3   1002                     
1979-04-15 17   13.2   152.8   1002                     
Winds are 10-min average.

Tropical cyclone tracks developed by Michael Bath using data from the Bureau of Meteorology and Google Maps.


[Australian Severe Weather index] [Copyright Notice] [Email Contacts] [Search This Site] [Privacy Policy]
Document: tropical_cyclone_stan.htm Updated: 30 May 2013